Time;durP1;ratioP1;P1;durP2;ratioP2;P2;SDS_P1;SDS_P2;PMS_P1;PMS_P2;Temp;Humidity;BMP_temperature;BMP_pressure;BME280_temperature;BME280_humidity;BME280_pressure;Samples;Min_cycle;Max_cycle;Signal;HPM_P1;HPM_P2
2023/05/08 04:32:24;;;;;;;7.10;2.95;;;15.70;73.30;;;;;;4995799;23;20051;-79
2023/05/08 04:34:50;;;;;;;5.90;2.80;;;15.70;73.50;;;;;;4936088;29;20731;-79
2023/05/08 04:37:27;;;;;;;10.93;3.40;;;15.80;73.90;;;;;;4936908;29;20055;-79
2023/05/08 04:39:53;;;;;;;10.98;3.63;;;15.70;74.00;;;;;;4937446;29;20038;-79
2023/05/08 04:42:19;;;;;;;7.60;3.40;;;15.80;73.80;;;;;;4936994;29;20529;-79
2023/05/08 04:44:46;;;;;;;7.18;3.08;;;15.80;74.00;;;;;;4919488;29;20810;-79
2023/05/08 04:47:12;;;;;;;9.15;3.63;;;15.80;73.70;;;;;;4937243;29;20051;-79
2023/05/08 04:49:38;;;;;;;7.00;3.42;;;15.80;73.40;;;;;;4950004;29;20031;-79
2023/05/08 04:52:03;;;;;;;6.97;3.30;;;15.80;73.40;;;;;;4964653;28;20038;-79
2023/05/08 04:54:29;;;;;;;11.02;3.65;;;15.80;73.30;;;;;;4957675;28;20102;-79
2023/05/08 04:56:55;;;;;;;7.60;3.25;;;15.80;73.30;;;;;;4974987;28;20045;-79
2023/05/08 04:59:20;;;;;;;9.00;3.33;;;15.80;73.50;;;;;;4945328;28;20585;-79
2023/05/08 05:01:46;;;;;;;8.43;3.15;;;15.90;73.20;;;;;;4938137;28;20028;-79
2023/05/08 05:04:12;;;;;;;8.00;3.63;;;15.90;73.20;;;;;;4947354;29;20026;-79
2023/05/08 05:06:38;;;;;;;8.07;3.88;;;15.90;73.50;;;;;;4958051;29;20465;-79
2023/05/08 05:09:04;;;;;;;7.53;3.53;;;15.90;73.70;;;;;;4937927;29;20114;-79
2023/05/08 05:11:29;;;;;;;6.05;3.70;;;15.80;74.10;;;;;;4939971;29;20027;-79
2023/05/08 05:13:55;;;;;;;10.10;3.92;;;15.90;73.40;;;;;;4939778;29;20039;-79
2023/05/08 05:16:21;;;;;;;5.63;3.63;;;15.90;73.80;;;;;;4951704;28;20031;-79
2023/05/08 05:18:46;;;;;;;9.40;3.20;;;15.90;74.00;;;;;;4948025;29;20042;-79
2023/05/08 05:21:12;;;;;;;10.98;4.30;;;15.90;73.60;;;;;;4941656;29;20041;-79
2023/05/08 05:23:37;;;;;;;8.23;4.07;;;16.00;74.40;;;;;;4958659;29;20023;-79
2023/05/08 05:26:03;;;;;;;7.10;3.97;;;16.00;74.00;;;;;;4958775;29;20020;-79
2023/05/08 05:28:29;;;;;;;11.98;4.45;;;16.00;74.40;;;;;;4947345;29;20038;-79
2023/05/08 05:30:55;;;;;;;9.18;3.65;;;16.00;74.00;;;;;;4938283;29;20052;-79
2023/05/08 05:33:21;;;;;;;7.10;3.50;;;16.00;74.20;;;;;;4947419;29;20083;-79
2023/05/08 05:35:46;;;;;;;7.80;3.58;;;16.10;74.50;;;;;;4933600;29;20028;-79
2023/05/08 05:38:12;;;;;;;6.75;3.70;;;16.10;73.90;;;;;;4958286;29;20074;-79
2023/05/08 05:40:37;;;;;;;8.18;3.20;;;16.00;74.10;;;;;;4958600;29;20031;-79
2023/05/08 05:43:03;;;;;;;9.23;3.55;;;16.00;74.10;;;;;;4937277;29;20028;-79
2023/05/08 05:45:29;;;;;;;8.45;3.92;;;16.00;74.50;;;;;;4954958;28;20039;-79
2023/05/08 05:47:54;;;;;;;10.65;3.60;;;16.00;74.30;;;;;;4946217;29;20032;-79
2023/05/08 05:50:21;;;;;;;7.07;3.85;;;16.10;74.40;;;;;;4922326;29;20031;-79
2023/05/08 05:52:47;;;;;;;5.78;3.30;;;16.10;74.50;;;;;;4922040;29;20031;-79
2023/05/08 05:55:13;;;;;;;11.45;3.88;;;16.10;74.50;;;;;;4932085;29;20491;-76
2023/05/08 05:57:38;;;;;;;8.35;3.83;;;16.10;74.30;;;;;;4938970;29;20028;-79
2023/05/08 06:00:05;;;;;;;11.50;3.40;;;16.20;74.00;;;;;;4922200;29;20038;-78
2023/05/08 06:02:32;;;;;;;7.35;3.45;;;16.20;74.60;;;;;;4947986;28;20075;-84
2023/05/08 06:04:59;;;;;;;7.82;3.50;;;16.20;73.70;;;;;;4941068;29;20027;-77
2023/05/08 06:07:24;;;;;;;8.18;3.42;;;16.20;74.10;;;;;;4958128;29;20023;-80
2023/05/08 06:09:51;;;;;;;7.78;3.13;;;16.30;73.80;;;;;;4957437;29;20050;-81
2023/05/08 06:12:17;;;;;;;6.88;3.55;;;16.20;74.10;;;;;;4940172;29;20070;-79
2023/05/08 06:14:43;;;;;;;7.28;3.28;;;16.20;75.30;;;;;;4944672;29;20027;-80
2023/05/08 06:17:09;;;;;;;7.30;3.33;;;16.20;74.30;;;;;;4939165;29;20055;-80
2023/05/08 06:19:35;;;;;;;6.95;3.80;;;16.30;74.30;;;;;;4938867;29;20024;-80
2023/05/08 06:22:01;;;;;;;12.95;3.63;;;16.20;75.00;;;;;;4937717;29;20058;-87
2023/05/08 06:24:27;;;;;;;12.48;4.07;;;16.20;74.20;;;;;;4939467;29;20039;-83
2023/05/08 06:26:53;;;;;;;8.50;3.85;;;16.30;74.20;;;;;;4950162;29;20031;-81
2023/05/08 06:29:18;;;;;;;9.40;4.03;;;16.30;74.30;;;;;;4957371;29;20048;-78
2023/05/08 06:31:44;;;;;;;7.15;3.28;;;16.30;74.20;;;;;;4939153;29;20052;-85
2023/05/08 06:34:10;;;;;;;8.55;3.60;;;16.30;74.60;;;;;;4946779;29;20027;-80
2023/05/08 06:36:36;;;;;;;8.25;4.00;;;16.30;74.00;;;;;;4957541;29;20086;-81
2023/05/08 06:39:04;;;;;;;8.20;3.55;;;16.30;74.40;;;;;;4951497;29;20517;-78
2023/05/08 06:41:30;;;;;;;5.95;3.10;;;16.30;74.90;;;;;;4938391;29;20486;-79
2023/05/08 06:43:56;;;;;;;7.75;3.60;;;16.30;74.40;;;;;;4941309;29;20127;-88
2023/05/08 06:46:22;;;;;;;5.90;3.22;;;16.30;74.80;;;;;;4940477;29;20040;-74
2023/05/08 06:48:47;;;;;;;5.63;3.20;;;16.30;75.00;;;;;;4954898;28;20434;-75
2023/05/08 06:51:13;;;;;;;7.70;3.70;;;16.30;75.30;;;;;;4935832;29;20039;-75
2023/05/08 06:53:39;;;;;;;8.13;3.92;;;16.30;74.90;;;;;;4943677;28;20066;-76
2023/05/08 06:56:05;;;;;;;8.80;3.80;;;16.30;75.10;;;;;;4943237;29;20036;-75
2023/05/08 06:58:31;;;;;;;7.57;3.92;;;16.30;75.00;;;;;;4950161;29;20024;-75
2023/05/08 07:01:00;;;;;;;9.68;4.07;;;16.30;75.20;;;;;;4970764;28;20053;-75
2023/05/08 07:03:26;;;;;;;7.28;3.63;;;16.20;75.70;;;;;;4961749;28;20402;-75
2023/05/08 07:05:52;;;;;;;9.27;3.55;;;16.20;75.90;;;;;;4939758;29;20035;-75
2023/05/08 07:08:18;;;;;;;7.25;3.20;;;16.20;75.80;;;;;;4955361;28;20409;-75
2023/05/08 07:10:43;;;;;;;5.43;3.40;;;16.20;75.70;;;;;;4947433;29;20031;-75
2023/05/08 07:13:09;;;;;;;9.57;4.05;;;16.20;76.00;;;;;;4933279;28;20028;-75
2023/05/08 07:15:35;;;;;;;9.85;3.95;;;16.20;76.00;;;;;;4945426;28;20040;-75
2023/05/08 07:18:00;;;;;;;9.38;3.75;;;16.30;76.30;;;;;;4934716;28;20039;-75
2023/05/08 07:20:27;;;;;;;6.35;3.30;;;16.20;76.10;;;;;;4920136;29;20031;-74
2023/05/08 07:22:52;;;;;;;7.32;3.67;;;16.20;75.90;;;;;;4938103;28;20087;-75
2023/05/08 07:25:18;;;;;;;6.70;3.53;;;16.30;76.10;;;;;;4943718;28;21054;-75
2023/05/08 07:27:43;;;;;;;7.90;3.45;;;16.30;76.60;;;;;;4942481;28;20700;-75
2023/05/08 07:30:09;;;;;;;7.28;3.80;;;16.30;76.30;;;;;;4926496;29;20051;-75
2023/05/08 07:32:37;;;;;;;7.45;3.60;;;16.30;76.10;;;;;;4945814;28;20186;-75
2023/05/08 07:35:04;;;;;;;9.02;4.00;;;16.40;76.00;;;;;;4946284;28;20027;-74
2023/05/08 07:37:31;;;;;;;8.07;3.85;;;16.50;76.10;;;;;;4943393;29;20031;-74
2023/05/08 07:39:57;;;;;;;6.78;4.03;;;16.60;76.50;;;;;;4947650;28;20066;-75
2023/05/08 07:42:23;;;;;;;5.80;3.78;;;16.60;76.20;;;;;;4923088;29;20051;-74
2023/05/08 07:44:49;;;;;;;8.50;4.68;;;16.70;76.00;;;;;;4939962;28;20413;-75
2023/05/08 07:47:14;;;;;;;9.75;4.28;;;16.70;75.90;;;;;;4930761;29;20031;-75
2023/05/08 07:49:40;;;;;;;6.65;3.55;;;16.80;76.40;;;;;;4927225;29;20418;-77
2023/05/08 07:52:06;;;;;;;10.30;3.95;;;16.80;76.80;;;;;;4932411;29;20038;-75
2023/05/08 07:54:32;;;;;;;8.15;3.58;;;16.80;76.20;;;;;;4950242;28;20032;-75
2023/05/08 07:56:57;;;;;;;10.35;4.15;;;16.90;76.10;;;;;;4946987;29;20107;-75
2023/05/08 07:59:23;;;;;;;6.65;3.35;;;16.90;76.20;;;;;;4946361;29;20024;-75
2023/05/08 08:01:49;;;;;;;7.90;3.78;;;17.00;76.00;;;;;;4941993;28;20079;-75
2023/05/08 08:04:14;;;;;;;5.88;3.53;;;17.00;75.70;;;;;;4945913;29;20057;-75
2023/05/08 08:06:40;;;;;;;7.07;4.30;;;17.00;75.80;;;;;;4946770;29;20027;-74
2023/05/08 08:09:06;;;;;;;7.93;4.40;;;17.00;75.50;;;;;;4945843;28;20051;-75
2023/05/08 08:11:32;;;;;;;11.70;4.47;;;17.10;76.00;;;;;;4927500;29;20042;-74
2023/05/08 08:13:57;;;;;;;11.10;3.85;;;17.10;76.10;;;;;;4950099;29;20110;-75
2023/05/08 08:16:23;;;;;;;10.80;3.78;;;17.10;76.10;;;;;;4934258;29;21161;-75
2023/05/08 08:18:51;;;;;;;8.27;3.95;;;17.20;75.90;;;;;;4950864;28;20479;-75
2023/05/08 08:21:17;;;;;;;7.90;4.28;;;17.20;75.60;;;;;;4948669;29;20020;-74
2023/05/08 08:23:43;;;;;;;7.53;3.83;;;17.30;75.50;;;;;;4947119;29;20038;-75
2023/05/08 08:26:08;;;;;;;9.52;4.38;;;17.30;75.90;;;;;;4944450;28;20023;-75
2023/05/08 08:28:34;;;;;;;9.57;4.40;;;17.30;75.60;;;;;;4949386;29;20045;-75
2023/05/08 08:31:00;;;;;;;10.55;4.22;;;17.40;76.10;;;;;;4949719;28;20046;-75
2023/05/08 08:33:28;;;;;;;10.55;4.35;;;17.40;75.80;;;;;;4952512;28;20043;-75
2023/05/08 08:35:53;;;;;;;8.65;4.15;;;17.50;76.00;;;;;;4928444;29;20031;-75
2023/05/08 08:38:19;;;;;;;8.82;3.78;;;17.50;75.40;;;;;;4940726;28;20060;-75
2023/05/08 08:40:44;;;;;;;9.50;3.45;;;17.70;75.80;;;;;;4938992;29;20020;-75
2023/05/08 08:43:10;;;;;;;5.65;3.28;;;17.80;75.80;;;;;;4939473;29;20071;-75
2023/05/08 08:45:36;;;;;;;6.60;3.08;;;17.70;74.50;;;;;;4939282;29;20034;-75
2023/05/08 08:48:03;;;;;;;9.13;3.67;;;17.70;74.70;;;;;;4938693;29;20063;-75
2023/05/08 08:50:32;;;;;;;6.82;3.75;;;17.80;74.60;;;;;;4938760;29;20027;-76
2023/05/08 08:53:09;;;;;;;6.00;3.33;;;17.80;74.80;;;;;;4942595;29;20060;-75
2023/05/08 08:55:38;;;;;;;10.85;4.20;;;17.90;74.80;;;;;;4927884;29;20323;-75
2023/05/08 08:58:32;;;;;;;6.47;3.30;;;18.00;73.80;;;;;;4947406;29;20418;-77
2023/05/08 09:00:59;;;;;;;7.20;3.15;;;18.00;73.50;;;;;;4934371;28;20061;-77
2023/05/08 09:03:26;;;;;;;6.82;3.17;;;18.10;73.10;;;;;;4931120;29;20055;-77
2023/05/08 09:05:53;;;;;;;5.90;2.55;;;18.00;73.20;;;;;;4949771;29;20042;-77
2023/05/08 09:08:19;;;;;;;5.20;2.35;;;18.00;72.80;;;;;;4952109;29;20078;-77
2023/05/08 09:10:45;;;;;;;5.03;2.45;;;18.20;73.10;;;;;;4930497;29;20035;-82
2023/05/08 09:13:11;;;;;;;7.40;2.92;;;18.40;72.40;;;;;;4955931;28;20087;-75
2023/05/08 09:15:37;;;;;;;4.32;2.40;;;18.60;71.40;;;;;;4949901;28;20862;-77
2023/05/08 09:18:03;;;;;;;6.53;2.40;;;18.90;71.00;;;;;;4950819;28;20022;-76
2023/05/08 09:20:28;;;;;;;3.88;2.05;;;19.10;70.10;;;;;;4932688;29;20035;-75
2023/05/08 09:22:55;;;;;;;9.25;2.83;;;19.20;69.60;;;;;;4947528;29;20091;-75
2023/05/08 09:25:22;;;;;;;5.05;1.80;;;19.30;69.60;;;;;;4950611;29;20110;-75
2023/05/08 09:27:47;;;;;;;4.65;2.40;;;19.20;69.30;;;;;;4931774;29;20136;-75
2023/05/08 09:30:13;;;;;;;3.08;1.77;;;19.20;68.60;;;;;;4932038;29;20064;-75
2023/05/08 09:32:43;;;;;;;2.88;1.70;;;19.20;68.80;;;;;;4950891;29;20031;-78
2023/05/08 09:35:09;;;;;;;2.72;1.30;;;19.20;68.80;;;;;;4950135;29;20031;-75
2023/05/08 09:37:41;;;;;;;3.83;1.50;;;19.10;67.00;;;;;;4930702;28;20494;-78
2023/05/08 09:40:20;;;;;;;2.40;1.00;;;19.00;67.90;;;;;;4953823;28;20057;-73
2023/05/08 09:42:47;;;;;;;4.05;1.75;;;18.90;68.30;;;;;;4946171;28;20028;-73
2023/05/08 09:45:30;;;;;;;5.35;1.75;;;18.80;68.40;;;;;;4937031;29;20098;-72
2023/05/08 09:47:56;;;;;;;3.28;2.15;;;18.80;68.10;;;;;;4953524;29;20379;-73
2023/05/08 09:50:22;;;;;;;4.82;1.88;;;18.90;68.60;;;;;;4958041;29;20078;-72
2023/05/08 09:52:49;;;;;;;2.70;1.65;;;19.00;67.20;;;;;;4953649;28;20031;-74
2023/05/08 09:55:15;;;;;;;4.20;1.80;;;19.20;67.30;;;;;;4931362;29;20038;-73
2023/05/08 09:57:55;;;;;;;1.50;1.00;;;19.30;67.10;;;;;;4958008;29;20406;-73
2023/05/08 10:00:22;;;;;;;3.10;1.30;;;19.50;66.90;;;;;;4939042;29;20027;-74
2023/05/08 10:02:59;;;;;;;2.80;1.33;;;19.60;66.10;;;;;;4953155;29;20020;-74
2023/05/08 10:05:30;;;;;;;2.20;1.40;;;19.70;64.70;;;;;;4951658;29;20032;-76
2023/05/08 10:08:16;;;;;;;8.32;1.40;;;19.80;65.10;;;;;;4946874;28;20023;-74
2023/05/08 10:10:42;;;;;;;2.40;1.10;;;19.70;64.00;;;;;;4932990;29;20043;-74
2023/05/08 10:13:07;;;;;;;1.60;0.95;;;19.70;64.10;;;;;;4942171;29;20123;-76
2023/05/08 10:15:36;;;;;;;3.58;1.58;;;19.80;63.30;;;;;;4944389;29;20039;-74
2023/05/08 10:18:05;;;;;;;1.50;1.00;;;19.80;63.70;;;;;;4947115;28;20517;-75
2023/05/08 10:20:32;;;;;;;2.27;1.03;;;20.10;62.90;;;;;;4947510;29;20090;-75
2023/05/08 10:22:58;;;;;;;2.45;1.10;;;20.30;60.90;;;;;;4943693;28;20281;-74
2023/05/08 10:25:25;;;;;;;2.22;1.00;;;20.20;60.20;;;;;;4935374;29;20027;-74
2023/05/08 10:28:02;;;;;;;2.13;0.95;;;20.40;60.90;;;;;;4947366;29;20463;-74
2023/05/08 10:30:30;;;;;;;2.25;1.02;;;20.30;60.00;;;;;;4956152;28;20063;-78
2023/05/08 10:32:58;;;;;;;3.85;1.27;;;20.20;59.90;;;;;;4941049;28;22967;-75
2023/05/08 10:35:24;;;;;;;2.28;1.10;;;20.00;59.70;;;;;;4954680;28;20057;-76
2023/05/08 10:37:52;;;;;;;1.83;1.08;;;19.90;60.00;;;;;;4940117;28;20030;-76
2023/05/08 10:40:20;;;;;;;3.10;0.90;;;19.70;59.70;;;;;;4944972;29;20031;-77
2023/05/08 10:42:46;;;;;;;1.20;0.70;;;19.60;59.00;;;;;;4946490;29;20031;-77
2023/05/08 10:45:12;;;;;;;1.52;0.90;;;19.60;59.70;;;;;;4951309;28;20028;-77
2023/05/08 10:48:01;;;;;;;2.97;1.00;;;19.50;60.50;;;;;;4948805;29;20058;-78
2023/05/08 10:50:36;;;;;;;4.28;1.17;;;19.40;60.40;;;;;;4952257;28;20497;-81
2023/05/08 10:53:05;;;;;;;5.75;1.30;;;19.20;61.70;;;;;;4940152;29;20061;-78
2023/05/08 10:55:35;;;;;;;2.85;1.30;;;19.00;63.00;;;;;;4951247;28;20067;-77
2023/05/08 10:58:13;;;;;;;3.10;1.40;;;19.20;63.80;;;;;;4938857;29;20121;-77
2023/05/08 11:00:51;;;;;;;4.03;2.20;;;19.10;64.10;;;;;;4957088;29;20062;-77
2023/05/08 11:03:20;;;;;;;4.07;1.17;;;19.10;64.50;;;;;;4947972;29;20027;-78
2023/05/08 11:05:47;;;;;;;3.85;1.52;;;19.30;64.70;;;;;;4956800;29;20028;-77
2023/05/08 11:08:15;;;;;;;1.98;1.20;;;19.40;65.20;;;;;;4956622;29;20027;-77
2023/05/08 11:10:45;;;;;;;5.72;2.10;;;19.60;64.00;;;;;;4951124;29;20051;-78
2023/05/08 11:13:11;;;;;;;3.55;1.50;;;19.70;63.20;;;;;;4937735;29;20095;-76
2023/05/08 11:15:39;;;;;;;1.92;1.17;;;19.60;62.40;;;;;;4928381;28;20442;-77
2023/05/08 11:18:15;;;;;;;3.45;1.15;;;19.60;62.10;;;;;;4937841;29;20074;-75
2023/05/08 11:20:42;;;;;;;2.80;0.93;;;19.60;61.60;;;;;;4938064;29;20165;-78
2023/05/08 11:23:21;;;;;;;3.00;1.25;;;19.50;61.10;;;;;;4933741;29;20110;-81
2023/05/08 11:25:47;;;;;;;3.15;1.00;;;19.40;61.30;;;;;;4928692;29;20028;-78
2023/05/08 11:28:15;;;;;;;1.67;0.98;;;19.30;61.50;;;;;;4948093;29;20042;-78
2023/05/08 11:30:43;;;;;;;1.65;1.10;;;19.30;62.20;;;;;;4929340;29;20055;-85
2023/05/08 11:33:09;;;;;;;1.90;1.13;;;19.30;61.90;;;;;;4948864;29;20386;-84
2023/05/08 11:35:54;;;;;;;3.67;1.20;;;19.40;62.10;;;;;;4928697;29;20043;-83
2023/05/08 11:38:35;;;;;;;3.67;1.30;;;19.70;62.40;;;;;;4929968;29;20020;-76
2023/05/08 11:41:04;;;;;;;;;;;19.90;62.60;;;;;;4941073;28;20773;-76
2023/05/08 11:43:33;;;;;;;2.65;1.13;;;20.20;62.70;;;;;;4947017;28;19906;-76
2023/05/08 11:46:03;;;;;;;2.67;1.35;;;20.30;62.40;;;;;;4949325;29;20166;-77
2023/05/08 11:48:30;;;;;;;3.60;1.35;;;20.20;61.40;;;;;;4945879;28;20036;-76
2023/05/08 11:50:56;;;;;;;2.80;1.38;;;20.00;61.90;;;;;;4934809;29;20557;-76
2023/05/08 11:53:22;;;;;;;3.25;1.40;;;19.80;62.30;;;;;;4941922;29;20507;-76
2023/05/08 11:55:48;;;;;;;3.55;1.55;;;19.70;63.10;;;;;;4944973;28;20039;-76
2023/05/08 11:58:15;;;;;;;4.00;1.50;;;19.70;63.50;;;;;;4922844;29;20071;-76
2023/05/08 12:00:45;;;;;;;5.10;2.13;;;19.60;63.70;;;;;;4922801;29;20027;-77
2023/05/08 12:03:16;;;;;;;4.13;1.30;;;19.40;64.30;;;;;;4941736;29;20126;-76
2023/05/08 12:05:42;;;;;;;4.00;2.10;;;19.30;65.50;;;;;;4925711;29;20043;-76
2023/05/08 12:08:08;;;;;;;3.50;2.05;;;19.20;66.20;;;;;;4943177;28;20028;-76
2023/05/08 12:10:52;;;;;;;4.03;1.58;;;19.20;65.90;;;;;;4939668;28;20047;-76
2023/05/08 12:13:23;;;;;;;4.15;1.38;;;19.40;64.10;;;;;;4938873;29;20481;-76
2023/05/08 12:15:54;;;;;;;2.15;1.00;;;19.70;63.10;;;;;;4946087;29;20036;-76
2023/05/08 12:18:21;;;;;;;2.38;1.50;;;19.90;62.40;;;;;;4943149;29;20085;-76
2023/05/08 12:20:58;;;;;;;3.10;1.70;;;20.10;62.70;;;;;;4943452;28;20039;-76
2023/05/08 12:23:25;;;;;;;3.85;1.42;;;20.40;63.40;;;;;;4942516;29;20038;-76
2023/05/08 12:25:54;;;;;;;4.45;1.67;;;20.50;63.10;;;;;;4949363;29;20020;-77
2023/05/08 12:28:20;;;;;;;3.33;1.50;;;20.60;63.10;;;;;;4934677;29;20039;-76
2023/05/08 12:30:46;;;;;;;3.25;1.73;;;20.80;62.30;;;;;;4951385;29;20106;-76
2023/05/08 12:33:12;;;;;;;3.28;1.40;;;20.90;62.50;;;;;;4948717;29;20039;-76
2023/05/08 12:35:38;;;;;;;4.22;1.60;;;20.90;61.80;;;;;;4948567;29;20026;-77
2023/05/08 12:38:08;;;;;;;3.92;1.55;;;20.90;62.80;;;;;;4947277;29;20106;-76
2023/05/08 12:40:42;;;;;;;5.65;1.80;;;21.00;62.80;;;;;;4950707;29;20062;-76
2023/05/08 12:43:09;;;;;;;4.80;1.77;;;21.00;62.50;;;;;;4930598;29;20020;-76
2023/05/08 12:45:40;;;;;;;8.10;2.05;;;21.00;62.10;;;;;;4932954;29;20035;-75
2023/05/08 12:48:11;;;;;;;4.65;1.70;;;20.90;62.40;;;;;;4953595;29;20035;-76
2023/05/08 12:50:45;;;;;;;4.00;1.33;;;20.90;62.30;;;;;;4952850;28;20947;-76
2023/05/08 12:53:18;;;;;;;4.97;1.45;;;20.80;62.70;;;;;;4949954;29;20380;-76
2023/05/08 12:55:53;;;;;;;5.60;1.92;;;21.00;62.90;;;;;;4945686;28;20023;-76
2023/05/08 12:58:23;;;;;;;7.32;1.70;;;21.30;62.50;;;;;;4949486;29;20058;-76
2023/05/08 13:00:50;;;;;;;2.95;1.65;;;21.30;61.30;;;;;;4932369;29;20486;-75
2023/05/08 13:03:25;;;;;;;2.55;1.40;;;21.40;61.70;;;;;;4956555;29;20438;-75
2023/05/08 13:05:51;;;;;;;5.13;2.70;;;21.30;61.70;;;;;;4943388;29;20063;-75
2023/05/08 13:08:17;;;;;;;3.92;2.10;;;21.20;62.50;;;;;;4927495;29;20041;-75
2023/05/08 13:10:53;;;;;;;2.95;1.60;;;21.00;62.60;;;;;;4944830;29;20552;-75
2023/05/08 13:13:24;;;;;;;3.90;1.60;;;20.80;62.70;;;;;;4950676;29;20521;-77
2023/05/08 13:15:51;;;;;;;4.45;1.65;;;20.60;62.80;;;;;;4949225;29;20027;-77
2023/05/08 13:18:18;;;;;;;5.22;1.70;;;20.50;62.90;;;;;;4946551;29;20496;-75
2023/05/08 13:20:45;;;;;;;5.20;1.50;;;20.30;62.80;;;;;;4953697;29;20030;-74
2023/05/08 13:23:11;;;;;;;2.03;1.40;;;20.10;63.50;;;;;;4941096;29;20148;-76
2023/05/08 13:25:38;;;;;;;5.72;1.90;;;19.90;63.50;;;;;;4950013;29;20051;-75
2023/05/08 13:28:05;;;;;;;3.25;1.33;;;19.80;64.40;;;;;;4952763;29;20438;-76
2023/05/08 13:30:30;;;;;;;5.03;1.98;;;19.80;64.80;;;;;;4957754;29;20123;-74
2023/05/08 13:32:56;;;;;;;4.45;1.65;;;19.80;65.10;;;;;;4958021;29;20526;-76
2023/05/08 13:35:23;;;;;;;4.10;1.80;;;19.80;65.10;;;;;;4941354;29;20107;-77
2023/05/08 13:37:49;;;;;;;3.10;1.58;;;19.90;65.10;;;;;;4941523;29;20111;-77
2023/05/08 13:40:15;;;;;;;3.40;1.40;;;20.00;65.70;;;;;;4950042;28;20023;-77
2023/05/08 13:42:41;;;;;;;4.07;1.42;;;20.10;65.10;;;;;;4952028;29;20031;-77
2023/05/08 13:45:09;;;;;;;2.30;1.10;;;20.20;64.70;;;;;;4951051;29;20028;-77
2023/05/08 13:47:35;;;;;;;4.75;1.25;;;20.30;64.20;;;;;;4947483;29;20031;-77
2023/05/08 13:50:02;;;;;;;4.55;1.30;;;20.50;64.10;;;;;;4948352;29;20063;-77
2023/05/08 13:52:30;;;;;;;3.15;1.27;;;20.50;64.10;;;;;;4948186;29;20079;-77
2023/05/08 13:54:57;;;;;;;2.28;1.08;;;20.60;64.10;;;;;;4947498;29;20023;-77
2023/05/08 13:57:23;;;;;;;2.53;1.23;;;20.60;63.20;;;;;;4931590;29;20027;-77
2023/05/08 13:59:49;;;;;;;4.80;1.75;;;20.50;63.00;;;;;;4948281;29;20103;-77
2023/05/08 14:02:14;;;;;;;3.22;1.50;;;20.50;63.20;;;;;;4946990;29;20011;-77
2023/05/08 14:04:40;;;;;;;6.07;2.00;;;20.40;64.10;;;;;;4951151;29;20159;-77
2023/05/08 14:07:06;;;;;;;4.63;1.25;;;20.30;63.80;;;;;;4947180;28;20071;-77
2023/05/08 14:09:32;;;;;;;4.03;1.33;;;20.20;64.00;;;;;;4949905;29;20035;-77
2023/05/08 14:11:58;;;;;;;3.45;1.10;;;20.10;64.50;;;;;;4944526;29;20078;-77
2023/05/08 14:14:24;;;;;;;4.95;1.65;;;20.10;64.50;;;;;;4948909;29;20027;-77
2023/05/08 14:16:50;;;;;;;6.15;1.52;;;20.10;64.90;;;;;;4948998;29;20089;-77
2023/05/08 14:19:16;;;;;;;2.83;1.27;;;20.20;65.40;;;;;;4946603;29;20040;-78
2023/05/08 14:21:43;;;;;;;7.18;1.38;;;20.20;65.50;;;;;;4948513;29;20023;-77
2023/05/08 14:24:09;;;;;;;5.35;1.60;;;20.10;65.10;;;;;;4945324;29;20027;-77
2023/05/08 14:26:35;;;;;;;3.83;1.75;;;20.10;65.10;;;;;;4947569;29;20023;-77
2023/05/08 14:29:00;;;;;;;4.30;1.20;;;20.20;65.20;;;;;;4948505;29;20028;-77
2023/05/08 14:31:26;;;;;;;3.97;1.75;;;20.30;65.40;;;;;;4948304;29;20044;-77
2023/05/08 14:33:51;;;;;;;3.47;1.30;;;20.40;64.60;;;;;;4948798;29;20163;-77
2023/05/08 14:36:17;;;;;;;6.93;1.58;;;20.30;64.00;;;;;;4932174;29;20071;-77
2023/05/08 14:38:43;;;;;;;3.63;1.70;;;20.20;64.20;;;;;;4947209;29;20450;-77
2023/05/08 14:41:08;;;;;;;4.65;1.58;;;20.10;64.50;;;;;;4930986;29;20016;-77
2023/05/08 14:43:34;;;;;;;4.82;1.75;;;20.00;65.20;;;;;;4926682;29;20036;-77
2023/05/08 14:46:00;;;;;;;4.28;1.70;;;20.00;65.60;;;;;;4946379;28;20027;-77
2023/05/08 14:48:26;;;;;;;4.75;1.63;;;19.90;66.10;;;;;;4976843;28;20042;-77
2023/05/08 14:50:52;;;;;;;3.70;1.58;;;19.80;66.00;;;;;;4959328;28;20034;-77
2023/05/08 14:53:18;;;;;;;6.60;1.77;;;19.80;66.30;;;;;;4966493;28;20036;-77
2023/05/08 14:55:43;;;;;;;5.95;2.03;;;19.70;66.60;;;;;;4937896;29;20167;-77
2023/05/08 14:58:09;;;;;;;6.45;2.38;;;19.60;66.70;;;;;;4950779;29;20027;-77
2023/05/08 15:00:35;;;;;;;4.78;1.60;;;19.60;67.20;;;;;;4945935;29;20395;-77
2023/05/08 15:03:00;;;;;;;3.83;1.70;;;19.50;67.40;;;;;;4950037;29;20454;-77
2023/05/08 15:05:26;;;;;;;6.00;3.22;;;19.40;67.70;;;;;;4947373;29;20028;-77
2023/05/08 15:07:52;;;;;;;8.25;3.40;;;19.40;67.90;;;;;;4949685;28;20031;-74
2023/05/08 15:10:17;;;;;;;7.40;2.03;;;19.40;68.10;;;;;;4947662;29;20032;-79
2023/05/08 15:12:43;;;;;;;4.38;2.03;;;19.30;68.20;;;;;;4939872;28;20086;-78
2023/05/08 15:15:09;;;;;;;7.78;2.58;;;19.30;68.30;;;;;;4919486;29;20103;-78
2023/05/08 15:17:35;;;;;;;5.93;2.47;;;19.20;68.50;;;;;;4917401;28;20036;-79
2023/05/08 15:20:02;;;;;;;7.00;1.80;;;19.00;69.00;;;;;;4960660;29;20035;-78
2023/05/08 15:22:28;;;;;;;6.35;1.65;;;19.00;69.20;;;;;;4952297;29;20486;-76
2023/05/08 15:24:54;;;;;;;7.88;1.90;;;19.00;68.80;;;;;;4957039;28;20046;-81
2023/05/08 15:27:19;;;;;;;5.35;1.70;;;19.10;69.20;;;;;;4936949;29;20035;-76
2023/05/08 15:29:46;;;;;;;4.18;1.27;;;19.10;68.70;;;;;;4953311;29;20019;-75
2023/05/08 15:32:12;;;;;;;2.80;1.20;;;19.10;68.00;;;;;;4947564;29;20039;-75
2023/05/08 15:34:38;;;;;;;3.17;1.23;;;19.20;68.10;;;;;;4955582;28;20038;-74
2023/05/08 15:37:03;;;;;;;5.53;1.30;;;19.30;67.80;;;;;;4949221;29;20041;-76
2023/05/08 15:39:29;;;;;;;4.70;1.45;;;19.40;67.80;;;;;;4948506;29;20040;-77
2023/05/08 15:41:54;;;;;;;4.43;1.23;;;19.40;67.50;;;;;;4947453;29;20034;-77
2023/05/08 15:44:20;;;;;;;3.65;1.73;;;19.40;67.60;;;;;;4945810;29;20027;-77
2023/05/08 15:46:46;;;;;;;4.22;1.55;;;19.30;67.80;;;;;;4942575;29;20088;-77
2023/05/08 15:49:11;;;;;;;2.60;1.30;;;19.30;67.70;;;;;;4942515;29;20043;-77
2023/05/08 15:51:37;;;;;;;6.32;1.65;;;19.20;67.60;;;;;;4943251;29;20496;-77
2023/05/08 15:54:02;;;;;;;8.45;1.95;;;19.20;68.00;;;;;;4942802;29;20019;-75
2023/05/08 15:56:28;;;;;;;5.68;1.27;;;19.30;68.00;;;;;;4942686;29;20036;-78
2023/05/08 15:58:54;;;;;;;5.78;1.45;;;19.20;67.90;;;;;;4943995;28;20036;-77
2023/05/08 16:01:20;;;;;;;3.50;1.30;;;19.40;67.80;;;;;;4956547;29;20015;-77
2023/05/08 16:03:46;;;;;;;3.97;1.48;;;19.70;66.90;;;;;;4953482;29;20020;-78
2023/05/08 16:06:11;;;;;;;5.55;1.40;;;19.80;66.70;;;;;;4946283;28;20106;-78
2023/05/08 16:08:37;;;;;;;3.83;1.40;;;19.90;66.40;;;;;;4953689;28;20024;-77
2023/05/08 16:11:03;;;;;;;6.45;1.75;;;19.90;66.20;;;;;;4948680;29;20063;-76
2023/05/08 16:13:28;;;;;;;3.67;1.25;;;19.90;66.00;;;;;;4953428;29;20035;-81
2023/05/08 16:16:00;;;;;;;2.72;1.55;;;19.90;66.40;;;;;;4946526;29;20042;-76
2023/05/08 16:18:25;;;;;;;6.43;1.40;;;19.80;66.50;;;;;;4949632;29;20050;-75
2023/05/08 16:20:51;;;;;;;2.55;1.20;;;19.70;65.80;;;;;;4953433;29;20026;-74
2023/05/08 16:23:17;;;;;;;3.72;1.30;;;19.60;66.20;;;;;;4934869;29;20023;-74
2023/05/08 16:25:42;;;;;;;4.13;1.40;;;19.60;66.90;;;;;;4946921;29;20039;-76
2023/05/08 16:28:08;;;;;;;3.83;1.75;;;19.50;67.10;;;;;;4950796;29;20081;-74
2023/05/08 16:30:33;;;;;;;3.08;1.35;;;19.40;67.30;;;;;;4949653;29;20058;-75
2023/05/08 16:32:59;;;;;;;7.18;1.75;;;19.40;67.30;;;;;;4950202;29;20031;-76
2023/05/08 16:35:25;;;;;;;6.85;1.42;;;19.30;67.70;;;;;;4944218;29;20167;-76
2023/05/08 16:37:50;;;;;;;4.90;1.48;;;19.30;68.00;;;;;;4947640;29;20035;-76
2023/05/08 16:40:16;;;;;;;7.43;1.95;;;19.30;68.20;;;;;;4948578;29;20056;-75
2023/05/08 16:42:42;;;;;;;3.38;1.55;;;19.30;68.40;;;;;;4949260;29;20047;-76
2023/05/08 16:45:08;;;;;;;4.40;1.98;;;19.30;68.30;;;;;;4932212;29;20027;-74
2023/05/08 16:47:33;;;;;;;7.35;2.10;;;19.30;68.50;;;;;;4925976;29;20034;-75
2023/05/08 16:49:59;;;;;;;6.35;1.83;;;19.30;68.70;;;;;;4945609;29;20020;-77
2023/05/08 16:52:25;;;;;;;4.47;1.65;;;19.30;68.10;;;;;;4950392;29;20046;-76
2023/05/08 16:54:51;;;;;;;2.47;1.30;;;19.30;68.20;;;;;;4930596;29;20478;-76
2023/05/08 16:57:17;;;;;;;5.60;1.70;;;19.30;68.20;;;;;;4943347;29;20376;-77
2023/05/08 16:59:42;;;;;;;3.45;1.75;;;19.20;68.20;;;;;;4946879;29;20028;-77
2023/05/08 17:02:08;;;;;;;3.58;1.20;;;19.10;68.30;;;;;;4948904;29;20034;-76
2023/05/08 17:04:33;;;;;;;3.85;1.23;;;19.10;68.10;;;;;;4945866;28;20032;-76
2023/05/08 17:06:59;;;;;;;5.70;1.48;;;18.90;67.90;;;;;;4927356;28;20475;-76
2023/05/08 17:09:26;;;;;;;4.35;1.67;;;18.90;68.20;;;;;;4949194;29;20097;-77
2023/05/08 17:11:52;;;;;;;7.90;2.42;;;18.90;68.30;;;;;;4924002;28;20031;-76
2023/05/08 17:14:18;;;;;;;3.80;1.27;;;18.90;68.50;;;;;;4944287;28;20498;-76
2023/05/08 17:16:43;;;;;;;6.72;1.30;;;19.00;68.40;;;;;;4949589;28;20039;-77